ESOK/KSD METAR and TAF weather

Enter ICAO airport designator
Station Type Date Time Source
ESOK METAR 2022/01/18 06:50 UTC NOAA

ESOK 180650Z 19004KT CAVOK M03/M07 Q1025


Station Type Date Time Source
ESOK Decoded METAR 2022/01/18 06:50 UTC NOAA

Karlstad , Sweden (ESOK) 59-26-41N 013-20-15E
Jan 18, 2022 - 01:50 AM EST / 2022.01.18 0650 UTC
Wind: from the S (190 degrees) at 5 MPH (4 KT):0
Visibility: greater than 7 mile(s):0
Temperature: 26 F (-3 C)
Windchill: 19 F (-7 C):1
Dew Point: 19 F (-7 C)
Relative Humidity: 73%
Pressure (altimeter): 30.27 in. Hg (1025 hPa)
ob: ESOK 180650Z 19004KT CAVOK M03/M07 Q1025
cycle: 7

Station Type Date Time Source
ESOK TAF 2017/05/22 06:33 UTC NOAA

TAF ESOK 220530Z 2206/2224 28006KT CAVOK

Example: see airport list